sensor_id;sensor_type;location;lat;lon;timestamp;P1;durP1;ratioP1;P2;durP2;ratioP2
40757;SDS011;26462;47.384;19.218;2022-09-25T07:46:27;4.75;;;2.70;;
40757;SDS011;26462;47.384;19.218;2022-09-25T07:49:18;3.47;;;1.98;;
40757;SDS011;26462;47.384;19.218;2022-09-25T07:58:42;5.18;;;1.70;;
40757;SDS011;26462;47.384;19.218;2022-09-25T11:06:45;1.23;;;0.43;;
40757;SDS011;26462;47.384;19.218;2022-09-25T11:09:27;1.20;;;0.40;;
40757;SDS011;26462;47.384;19.218;2022-09-25T12:01:29;1.17;;;0.40;;
40757;SDS011;26462;47.384;19.218;2022-09-25T12:34:13;1.88;;;0.57;;
40757;SDS011;26462;47.384;19.218;2022-09-25T14:47:17;17.00;;;5.50;;
40757;SDS011;26462;47.384;19.218;2022-09-25T15:17:15;15.85;;;7.18;;
40757;SDS011;26462;47.384;19.218;2022-09-25T15:20:20;38.15;;;19.33;;
40757;SDS011;26462;47.384;19.218;2022-09-25T15:23:13;14.77;;;7.68;;
40757;SDS011;26462;47.384;19.218;2022-09-25T16:47:47;20.85;;;11.75;;
40757;SDS011;26462;47.384;19.218;2022-09-25T16:50:20;18.52;;;10.65;;
40757;SDS011;26462;47.384;19.218;2022-09-25T16:53:58;37.25;;;18.80;;
40757;SDS011;26462;47.384;19.218;2022-09-25T16:56:48;57.70;;;25.85;;
40757;SDS011;26462;47.384;19.218;2022-09-25T16:59:21;54.63;;;25.57;;
40757;SDS011;26462;47.384;19.218;2022-09-25T17:02:30;33.92;;;16.50;;
40757;SDS011;26462;47.384;19.218;2022-09-25T17:05:14;26.92;;;14.00;;
40757;SDS011;26462;47.384;19.218;2022-09-25T17:08:09;26.13;;;13.45;;
40757;SDS011;26462;47.384;19.218;2022-09-25T17:12:24;23.23;;;12.82;;
40757;SDS011;26462;47.384;19.218;2022-09-25T17:15:58;20.58;;;11.10;;
40757;SDS011;26462;47.384;19.218;2022-09-25T17:26:43;25.02;;;13.27;;
40757;SDS011;26462;47.384;19.218;2022-09-25T17:59:30;27.75;;;14.65;;
40757;SDS011;26462;47.384;19.218;2022-09-25T18:09:32;16.58;;;9.32;;
40757;SDS011;26462;47.384;19.218;2022-09-25T18:15:46;15.68;;;8.52;;
40757;SDS011;26462;47.384;19.218;2022-09-25T18:18:51;12.63;;;8.18;;
40757;SDS011;26462;47.384;19.218;2022-09-25T18:21:44;15.77;;;8.60;;
40757;SDS011;26462;47.384;19.218;2022-09-25T18:24:57;15.23;;;8.82;;
40757;SDS011;26462;47.384;19.218;2022-09-25T18:27:57;15.20;;;8.60;;
40757;SDS011;26462;47.384;19.218;2022-09-25T18:34:14;15.25;;;9.68;;
40757;SDS011;26462;47.384;19.218;2022-09-25T18:37:18;20.23;;;11.15;;
40757;SDS011;26462;47.384;19.218;2022-09-25T18:40:04;17.42;;;10.95;;
40757;SDS011;26462;47.384;19.218;2022-09-25T18:43:06;22.73;;;12.23;;
40757;SDS011;26462;47.384;19.218;2022-09-25T18:46:19;19.08;;;10.40;;
40757;SDS011;26462;47.384;19.218;2022-09-25T18:49:20;21.15;;;11.35;;
40757;SDS011;26462;47.384;19.218;2022-09-25T18:52:21;17.60;;;10.73;;
40757;SDS011;26462;47.384;19.218;2022-09-25T18:54:59;20.13;;;10.68;;
40757;SDS011;26462;47.384;19.218;2022-09-25T18:57:43;19.05;;;10.13;;
40757;SDS011;26462;47.384;19.218;2022-09-25T19:01:00;18.90;;;11.18;;
40757;SDS011;26462;47.384;19.218;2022-09-25T19:03:35;21.08;;;11.43;;
40757;SDS011;26462;47.384;19.218;2022-09-25T19:06:16;21.25;;;11.52;;
40757;SDS011;26462;47.384;19.218;2022-09-25T19:09:06;21.50;;;11.63;;
40757;SDS011;26462;47.384;19.218;2022-09-25T19:12:00;22.17;;;11.32;;
40757;SDS011;26462;47.384;19.218;2022-09-25T19:14:32;17.80;;;10.20;;
40757;SDS011;26462;47.384;19.218;2022-09-25T19:17:15;16.83;;;10.20;;
40757;SDS011;26462;47.384;19.218;2022-09-25T19:19:53;17.13;;;9.70;;
40757;SDS011;26462;47.384;19.218;2022-09-25T19:22:42;16.35;;;9.63;;
40757;SDS011;26462;47.384;19.218;2022-09-25T19:25:21;17.35;;;10.63;;
40757;SDS011;26462;47.384;19.218;2022-09-25T19:28:13;20.55;;;11.40;;
40757;SDS011;26462;47.384;19.218;2022-09-25T19:31:24;17.25;;;11.23;;
40757;SDS011;26462;47.384;19.218;2022-09-25T19:34:01;24.33;;;9.85;;
40757;SDS011;26462;47.384;19.218;2022-09-25T19:36:55;15.47;;;9.37;;
40757;SDS011;26462;47.384;19.218;2022-09-25T19:39:46;13.85;;;8.30;;
40757;SDS011;26462;47.384;19.218;2022-09-25T19:42:48;16.13;;;9.30;;
40757;SDS011;26462;47.384;19.218;2022-09-25T19:46:30;17.80;;;10.80;;
40757;SDS011;26462;47.384;19.218;2022-09-25T19:49:42;21.40;;;11.77;;
40757;SDS011;26462;47.384;19.218;2022-09-25T20:00:08;31.83;;;16.70;;
40757;SDS011;26462;47.384;19.218;2022-09-25T20:03:44;32.92;;;16.95;;
40757;SDS011;26462;47.384;19.218;2022-09-25T20:07:00;29.42;;;15.57;;
40757;SDS011;26462;47.384;19.218;2022-09-25T20:09:39;30.92;;;15.43;;
40757;SDS011;26462;47.384;19.218;2022-09-25T20:12:16;27.60;;;14.68;;
40757;SDS011;26462;47.384;19.218;2022-09-25T20:14:53;27.85;;;13.95;;
40757;SDS011;26462;47.384;19.218;2022-09-25T20:17:30;27.13;;;13.50;;
40757;SDS011;26462;47.384;19.218;2022-09-25T20:20:53;23.00;;;12.68;;
40757;SDS011;26462;47.384;19.218;2022-09-25T20:23:30;23.60;;;12.38;;
40757;SDS011;26462;47.384;19.218;2022-09-25T20:26:08;21.42;;;11.07;;
40757;SDS011;26462;47.384;19.218;2022-09-25T20:28:57;21.40;;;11.88;;
40757;SDS011;26462;47.384;19.218;2022-09-25T20:32:40;17.67;;;11.05;;
40757;SDS011;26462;47.384;19.218;2022-09-25T20:35:50;21.48;;;10.82;;
40757;SDS011;26462;47.384;19.218;2022-09-25T20:39:18;23.90;;;12.45;;
40757;SDS011;26462;47.384;19.218;2022-09-25T20:42:47;23.90;;;12.68;;
40757;SDS011;26462;47.384;19.218;2022-09-25T20:45:58;22.33;;;13.48;;
40757;SDS011;26462;47.384;19.218;2022-09-25T20:49:10;23.52;;;13.95;;
40757;SDS011;26462;47.384;19.218;2022-09-25T20:52:05;23.35;;;13.65;;
40757;SDS011;26462;47.384;19.218;2022-09-25T20:54:38;26.25;;;14.82;;
40757;SDS011;26462;47.384;19.218;2022-09-25T20:57:16;29.70;;;15.85;;
40757;SDS011;26462;47.384;19.218;2022-09-25T21:00:04;29.20;;;16.40;;
40757;SDS011;26462;47.384;19.218;2022-09-25T21:03:29;32.90;;;17.27;;
40757;SDS011;26462;47.384;19.218;2022-09-25T21:06:34;34.03;;;18.55;;
40757;SDS011;26462;47.384;19.218;2022-09-25T21:09:28;31.05;;;17.08;;
40757;SDS011;26462;47.384;19.218;2022-09-25T21:12:27;29.42;;;15.85;;
40757;SDS011;26462;47.384;19.218;2022-09-25T21:15:20;26.88;;;15.43;;
40757;SDS011;26462;47.384;19.218;2022-09-25T21:31:53;24.98;;;13.32;;
40757;SDS011;26462;47.384;19.218;2022-09-25T21:37:50;21.20;;;11.40;;
40757;SDS011;26462;47.384;19.218;2022-09-25T22:11:39;13.23;;;7.28;;
40757;SDS011;26462;47.384;19.218;2022-09-25T22:14:20;13.60;;;6.90;;
40757;SDS011;26462;47.384;19.218;2022-09-25T22:16:50;13.70;;;6.95;;
40757;SDS011;26462;47.384;19.218;2022-09-25T22:19:20;11.90;;;6.97;;
40757;SDS011;26462;47.384;19.218;2022-09-25T22:22:16;15.50;;;7.38;;
40757;SDS011;26462;47.384;19.218;2022-09-25T22:24:45;13.98;;;7.90;;
40757;SDS011;26462;47.384;19.218;2022-09-25T22:27:19;13.70;;;7.03;;
40757;SDS011;26462;47.384;19.218;2022-09-25T22:29:48;14.98;;;8.07;;
40757;SDS011;26462;47.384;19.218;2022-09-25T22:32:20;13.10;;;7.60;;
40757;SDS011;26462;47.384;19.218;2022-09-25T22:35:10;12.68;;;7.50;;
40757;SDS011;26462;47.384;19.218;2022-09-25T23:30:49;18.60;;;9.68;;
40757;SDS011;26462;47.384;19.218;2022-09-25T23:34:32;20.05;;;9.80;;
40757;SDS011;26462;47.384;19.218;2022-09-25T23:44:04;20.35;;;10.32;;
40757;SDS011;26462;47.384;19.218;2022-09-25T23:46:37;19.67;;;10.10;;
40757;SDS011;26462;47.384;19.218;2022-09-25T23:49:31;18.88;;;10.45;;
40757;SDS011;26462;47.384;19.218;2022-09-25T23:52:16;16.83;;;9.88;;
40757;SDS011;26462;47.384;19.218;2022-09-25T23:55:13;15.88;;;9.57;;
40757;SDS011;26462;47.384;19.218;2022-09-25T23:58:19;16.98;;;9.63;;
